Time;durP1;ratioP1;P1;durP2;ratioP2;P2;SDS_P1;SDS_P2;PMS_P1;PMS_P2;Temp;Humidity;BMP_temperature;BMP_pressure;BME280_temperature;BME280_humidity;BME280_pressure;Samples;Min_cycle;Max_cycle;Signal;HPM_P1;HPM_P2
2022/08/16 00:02:18;;;;;;;11.70;10.60;;;23.40;99.90;;;;;;5010762;28;20212;-75
2022/08/16 00:04:44;;;;;;;15.00;10.55;;;23.40;99.90;;;;;;5011144;28;20657;-74
2022/08/16 00:07:11;;;;;;;13.32;10.77;;;23.40;99.90;;;;;;5010143;28;20214;-73
2022/08/16 00:09:38;;;;;;;14.55;10.57;;;23.30;99.90;;;;;;5011454;28;20226;-74
2022/08/16 00:12:06;;;;;;;10.98;9.88;;;23.30;99.90;;;;;;5010718;28;20669;-74
2022/08/16 00:14:33;;;;;;;11.73;10.20;;;23.30;99.90;;;;;;5007991;28;20273;-74
2022/08/16 00:17:01;;;;;;;11.65;10.55;;;23.30;99.90;;;;;;5010196;28;20206;-74
2022/08/16 00:19:31;;;;;;;11.02;10.02;;;23.30;99.90;;;;;;5010357;28;20207;-74
2022/08/16 00:21:58;;;;;;;12.02;10.60;;;23.30;99.90;;;;;;5009341;28;20603;-74
2022/08/16 00:24:26;;;;;;;11.27;10.18;;;23.30;99.90;;;;;;5009723;28;20207;-75
2022/08/16 00:26:53;;;;;;;13.07;10.13;;;23.30;99.90;;;;;;5010313;28;20214;-75
2022/08/16 00:29:21;;;;;;;13.43;10.02;;;23.30;99.90;;;;;;5008336;28;20234;-74
2022/08/16 00:31:50;;;;;;;11.00;9.80;;;23.20;99.90;;;;;;5010217;28;20214;-74
2022/08/16 00:34:19;;;;;;;13.27;10.23;;;23.20;99.90;;;;;;5009424;28;20684;-74
2022/08/16 00:36:46;;;;;;;11.50;10.40;;;23.20;99.90;;;;;;5010645;28;20672;-73
2022/08/16 00:39:13;;;;;;;10.90;9.75;;;23.10;99.90;;;;;;5010933;28;20210;-73
2022/08/16 00:41:41;;;;;;;11.82;10.32;;;23.20;99.90;;;;;;5010768;28;20234;-73
2022/08/16 00:44:09;;;;;;;11.75;10.45;;;23.20;99.90;;;;;;5010961;28;20671;-73
2022/08/16 00:46:43;;;;;;;10.80;9.77;;;23.10;99.90;;;;;;5008677;28;20203;-73
2022/08/16 00:49:12;;;;;;;10.52;9.52;;;23.10;99.90;;;;;;5009021;28;20254;-72
2022/08/16 00:51:41;;;;;;;10.45;9.10;;;23.10;99.90;;;;;;5008679;28;20208;-72
2022/08/16 00:54:08;;;;;;;11.02;9.48;;;23.10;99.90;;;;;;5009819;28;20254;-73
2022/08/16 00:56:38;;;;;;;13.23;10.32;;;23.10;99.90;;;;;;5006369;28;20272;-73
2022/08/16 00:59:07;;;;;;;11.00;9.25;;;23.10;99.90;;;;;;5008829;28;20578;-73
2022/08/16 01:01:33;;;;;;;14.82;10.02;;;23.10;99.90;;;;;;5009146;28;20631;-72
2022/08/16 01:04:01;;;;;;;10.73;9.73;;;23.10;99.90;;;;;;5010578;28;20215;-73
2022/08/16 01:06:29;;;;;;;10.45;9.35;;;23.00;99.90;;;;;;5009309;28;20208;-72
2022/08/16 01:08:58;;;;;;;11.35;9.15;;;23.00;99.90;;;;;;5009926;28;20218;-71
2022/08/16 01:11:26;;;;;;;10.00;9.10;;;23.00;99.90;;;;;;5010114;28;20219;-72
2022/08/16 01:13:58;;;;;;;11.10;9.57;;;23.00;99.90;;;;;;5009446;28;20699;-73
2022/08/16 01:16:27;;;;;;;11.38;9.73;;;23.00;99.90;;;;;;5008861;28;20208;-73
2022/08/16 01:18:58;;;;;;;9.00;8.10;;;22.90;99.90;;;;;;5011152;28;20211;-72
2022/08/16 01:21:34;;;;;;;11.00;9.18;;;22.90;99.90;;;;;;5012400;28;20211;-73
2022/08/16 01:24:23;;;;;;;11.23;9.45;;;22.90;99.90;;;;;;5012445;28;20199;-71
2022/08/16 01:26:53;;;;;;;11.75;9.70;;;22.90;99.90;;;;;;5012785;28;20727;-71
2022/08/16 01:29:23;;;;;;;10.07;9.07;;;22.90;99.90;;;;;;5012163;28;20262;-71
2022/08/16 01:31:50;;;;;;;10.27;8.85;;;22.90;99.90;;;;;;5013245;28;20215;-71
2022/08/16 01:34:18;;;;;;;10.48;9.43;;;22.80;99.90;;;;;;5009390;28;20233;-72
2022/08/16 01:36:46;;;;;;;10.43;9.25;;;22.90;99.90;;;;;;5013382;28;20207;-71
2022/08/16 01:39:16;;;;;;;10.70;9.48;;;22.90;99.90;;;;;;5013115;28;20308;-72
2022/08/16 01:41:46;;;;;;;10.50;9.50;;;22.80;99.90;;;;;;5013164;28;20208;-71
2022/08/16 01:44:13;;;;;;;10.98;8.95;;;22.80;99.90;;;;;;5011709;28;20199;-71
2022/08/16 01:46:43;;;;;;;12.93;10.05;;;22.80;99.90;;;;;;5013098;28;20208;-73
2022/08/16 01:49:12;;;;;;;13.00;11.57;;;22.80;99.90;;;;;;5012246;28;20307;-74
2022/08/16 01:51:42;;;;;;;10.07;9.10;;;22.80;99.90;;;;;;5011766;28;20218;-74
2022/08/16 01:54:09;;;;;;;13.90;9.55;;;22.80;99.90;;;;;;5011022;28;20222;-74
2022/08/16 01:56:36;;;;;;;10.93;9.32;;;22.80;99.90;;;;;;5013087;28;20287;-74
2022/08/16 01:59:10;;;;;;;9.93;8.80;;;22.80;99.90;;;;;;5012453;28;20207;-72
2022/08/16 02:01:37;;;;;;;9.60;8.60;;;22.80;99.90;;;;;;5011392;28;20211;-73
2022/08/16 02:04:04;;;;;;;11.20;10.13;;;22.80;99.90;;;;;;5012123;28;20207;-73
2022/08/16 02:06:32;;;;;;;11.10;10.10;;;22.80;99.90;;;;;;5013329;28;20230;-73
2022/08/16 02:09:00;;;;;;;10.82;9.15;;;22.80;99.90;;;;;;5012036;28;20286;-72
2022/08/16 02:11:27;;;;;;;13.32;9.65;;;22.80;99.90;;;;;;5012544;28;20211;-72
2022/08/16 02:13:54;;;;;;;11.15;9.43;;;22.80;99.90;;;;;;5011584;28;20237;-71
2022/08/16 02:16:22;;;;;;;11.65;9.50;;;22.80;99.90;;;;;;5010861;28;20738;-73
2022/08/16 02:18:49;;;;;;;10.23;9.15;;;22.80;99.90;;;;;;5012825;28;20207;-73
2022/08/16 02:21:17;;;;;;;11.05;9.88;;;22.80;99.90;;;;;;5012103;28;20203;-73
2022/08/16 02:23:45;;;;;;;13.85;9.77;;;22.80;99.90;;;;;;5012566;28;20272;-74
2022/08/16 02:26:13;;;;;;;11.05;9.15;;;22.80;99.90;;;;;;5010704;28;20211;-73
2022/08/16 02:28:41;;;;;;;10.57;8.98;;;22.80;99.90;;;;;;5011974;28;20231;-73
2022/08/16 02:31:10;;;;;;;10.68;9.68;;;22.80;99.90;;;;;;5011260;28;20206;-73
2022/08/16 02:33:39;;;;;;;9.70;8.90;;;22.80;99.90;;;;;;5011062;28;20238;-72
2022/08/16 02:36:06;;;;;;;10.75;9.02;;;22.80;99.90;;;;;;5011132;28;20191;-72
2022/08/16 02:38:34;;;;;;;13.25;9.80;;;22.70;99.90;;;;;;5011779;28;20608;-73
2022/08/16 02:41:03;;;;;;;13.05;10.27;;;22.70;99.90;;;;;;5006717;28;20744;-72
2022/08/16 02:43:32;;;;;;;11.15;9.65;;;22.70;99.90;;;;;;4998401;28;20214;-74
2022/08/16 02:46:00;;;;;;;10.45;9.45;;;22.70;99.90;;;;;;5010415;28;20202;-73
2022/08/16 02:48:29;;;;;;;10.23;9.20;;;22.70;99.90;;;;;;5012116;28;20695;-72
2022/08/16 02:50:58;;;;;;;12.93;9.73;;;22.60;99.90;;;;;;5012160;28;20204;-72
2022/08/16 02:53:25;;;;;;;10.75;9.30;;;22.60;99.90;;;;;;5011028;28;20222;-73
2022/08/16 02:55:52;;;;;;;10.65;9.57;;;22.60;99.90;;;;;;5011742;28;20230;-73
2022/08/16 02:58:20;;;;;;;11.00;10.00;;;22.60;99.90;;;;;;5010108;28;20615;-73
2022/08/16 03:00:47;;;;;;;10.00;9.10;;;22.60;99.90;;;;;;5009516;28;20211;-72
2022/08/16 03:03:14;;;;;;;9.68;8.50;;;22.60;99.90;;;;;;5011813;28;20219;-73
2022/08/16 03:05:41;;;;;;;10.10;9.10;;;22.60;99.90;;;;;;5010465;28;20238;-73
2022/08/16 03:08:09;;;;;;;10.30;9.13;;;22.50;99.90;;;;;;5011812;28;20226;-74
2022/08/16 03:10:36;;;;;;;11.25;10.15;;;22.50;99.90;;;;;;5012204;28;20211;-74
2022/08/16 03:13:04;;;;;;;11.30;10.30;;;22.50;99.90;;;;;;5010114;28;20567;-73
2022/08/16 03:15:31;;;;;;;11.82;10.13;;;22.50;99.90;;;;;;5009586;28;20632;-74
2022/08/16 03:17:58;;;;;;;12.88;9.98;;;22.50;99.90;;;;;;5010549;28;20234;-73
2022/08/16 03:20:25;;;;;;;11.82;10.35;;;22.40;99.90;;;;;;5011168;28;20306;-74
2022/08/16 03:22:52;;;;;;;11.15;9.95;;;22.40;99.90;;;;;;5005494;28;20231;-74
2022/08/16 03:25:20;;;;;;;10.90;9.93;;;22.40;99.90;;;;;;5001827;28;20207;-74
2022/08/16 03:27:47;;;;;;;11.98;10.25;;;22.40;99.90;;;;;;4998133;28;20237;-73
2022/08/16 03:30:16;;;;;;;12.07;10.35;;;22.40;99.90;;;;;;4997875;28;20285;-73
2022/08/16 03:32:43;;;;;;;11.77;9.55;;;22.30;99.90;;;;;;5010189;28;20230;-73
2022/08/16 03:35:10;;;;;;;11.43;10.32;;;22.30;99.90;;;;;;5010854;28;20250;-72
2022/08/16 03:37:42;;;;;;;13.98;10.70;;;22.30;99.90;;;;;;5001113;28;20564;-73
2022/08/16 03:40:10;;;;;;;10.70;9.60;;;22.30;99.90;;;;;;4997945;28;20207;-72
2022/08/16 03:42:38;;;;;;;11.52;10.40;;;22.30;99.90;;;;;;5011403;28;20581;-72
2022/08/16 03:45:06;;;;;;;11.30;10.30;;;22.30;99.90;;;;;;5010120;28;20763;-72
2022/08/16 03:47:33;;;;;;;12.18;10.05;;;22.30;99.90;;;;;;5008741;28;20239;-73
2022/08/16 03:50:01;;;;;;;11.70;10.48;;;22.30;99.90;;;;;;5010932;28;20213;-74
2022/08/16 03:52:27;;;;;;;13.65;10.18;;;22.30;99.90;;;;;;5010263;28;20242;-73
2022/08/16 03:54:54;;;;;;;11.00;9.90;;;22.30;99.90;;;;;;5010629;28;20688;-72
2022/08/16 03:57:21;;;;;;;14.52;11.13;;;22.30;99.90;;;;;;5009441;28;20242;-72
2022/08/16 03:59:49;;;;;;;11.18;10.18;;;22.30;99.90;;;;;;5010055;28;20211;-73
2022/08/16 04:02:17;;;;;;;11.23;9.88;;;22.30;99.90;;;;;;5006351;28;20191;-73
2022/08/16 04:04:45;;;;;;;13.07;10.90;;;22.30;99.90;;;;;;5010095;28;20600;-73
2022/08/16 04:07:12;;;;;;;10.85;9.88;;;22.30;99.90;;;;;;5009435;28;20207;-72
2022/08/16 04:09:39;;;;;;;13.45;10.32;;;22.30;99.90;;;;;;5009181;28;20207;-73
2022/08/16 04:12:07;;;;;;;14.68;11.05;;;22.30;99.90;;;;;;5010619;28;20230;-72
2022/08/16 04:14:34;;;;;;;11.13;9.98;;;22.30;99.90;;;;;;5009698;28;20234;-73
2022/08/16 04:17:03;;;;;;;12.60;10.48;;;22.30;99.90;;;;;;5008987;28;20204;-73
2022/08/16 04:19:32;;;;;;;12.20;11.00;;;22.30;99.90;;;;;;5010362;28;20570;-73
2022/08/16 04:21:59;;;;;;;10.75;9.65;;;22.30;99.90;;;;;;5010903;28;20280;-74
2022/08/16 04:24:26;;;;;;;15.10;10.90;;;22.30;99.90;;;;;;5011197;28;20218;-74
2022/08/16 04:26:53;;;;;;;12.10;10.70;;;22.40;99.90;;;;;;5010639;28;20230;-74
2022/08/16 04:29:20;;;;;;;11.93;9.77;;;22.30;99.90;;;;;;5010579;28;20222;-72
2022/08/16 04:31:47;;;;;;;13.45;10.15;;;22.40;99.90;;;;;;5010228;28;20570;-72
2022/08/16 04:34:15;;;;;;;14.20;11.23;;;22.40;99.90;;;;;;5003228;28;20216;-73
2022/08/16 04:36:42;;;;;;;11.15;10.05;;;22.40;99.90;;;;;;5003783;28;20218;-72
2022/08/16 04:39:09;;;;;;;14.60;10.07;;;22.40;99.90;;;;;;5010618;28;20218;-73
2022/08/16 04:41:35;;;;;;;12.05;10.73;;;22.40;99.90;;;;;;5010280;28;20215;-72
2022/08/16 04:44:03;;;;;;;11.38;10.27;;;22.50;99.90;;;;;;5010196;28;20222;-72
2022/08/16 04:46:29;;;;;;;14.65;10.48;;;22.50;99.90;;;;;;5004989;28;20218;-73
2022/08/16 04:48:56;;;;;;;11.70;10.57;;;22.40;99.90;;;;;;5009002;28;20214;-73
2022/08/16 04:51:24;;;;;;;10.90;9.63;;;22.50;99.90;;;;;;5009802;28;20219;-73
2022/08/16 04:53:51;;;;;;;14.77;9.85;;;22.50;99.90;;;;;;5011615;28;20222;-74
2022/08/16 04:56:19;;;;;;;10.40;9.32;;;22.50;99.90;;;;;;5014138;28;20247;-73
2022/08/16 04:58:46;;;;;;;11.10;9.82;;;22.50;99.90;;;;;;5013428;28;20577;-72
2022/08/16 05:01:13;;;;;;;11.63;10.30;;;22.50;99.90;;;;;;5003667;28;20241;-73
2022/08/16 05:03:40;;;;;;;10.88;9.43;;;22.50;99.90;;;;;;5011912;28;20199;-72
2022/08/16 05:06:07;;;;;;;13.50;10.57;;;22.50;99.90;;;;;;5013964;28;20604;-73
2022/08/16 05:08:35;;;;;;;10.90;9.80;;;22.60;99.90;;;;;;5013610;28;20540;-73
2022/08/16 05:11:04;;;;;;;10.63;9.63;;;22.60;99.90;;;;;;5012972;28;20558;-74
2022/08/16 05:13:31;;;;;;;10.07;9.07;;;22.70;99.90;;;;;;5014225;28;20222;-74
2022/08/16 05:15:58;;;;;;;11.43;10.00;;;22.70;99.90;;;;;;5009719;28;20235;-72
2022/08/16 05:18:24;;;;;;;10.82;9.80;;;22.80;99.90;;;;;;5013549;28;20218;-73
2022/08/16 05:20:51;;;;;;;10.63;9.27;;;22.90;99.90;;;;;;5011179;28;20218;-69
2022/08/16 05:23:18;;;;;;;10.50;9.20;;;22.90;99.90;;;;;;5012872;28;20234;-70
2022/08/16 05:25:46;;;;;;;11.75;9.75;;;23.00;99.90;;;;;;5013120;28;20211;-69
2022/08/16 05:28:13;;;;;;;12.98;9.63;;;23.10;99.90;;;;;;5005271;28;20215;-68
2022/08/16 05:30:40;;;;;;;10.10;9.02;;;23.20;99.90;;;;;;5011115;28;20211;-69
2022/08/16 05:33:07;;;;;;;12.68;9.45;;;23.30;99.90;;;;;;5012535;28;20219;-68
2022/08/16 05:35:34;;;;;;;11.35;9.23;;;23.30;99.90;;;;;;5012452;28;20227;-69
2022/08/16 05:38:01;;;;;;;10.27;9.25;;;23.40;99.90;;;;;;5012302;28;20242;-68
2022/08/16 05:40:28;;;;;;;10.15;8.82;;;23.50;99.90;;;;;;5011966;28;20214;-74
2022/08/16 05:42:56;;;;;;;12.90;9.15;;;23.50;99.90;;;;;;5011209;28;20827;-74
2022/08/16 05:45:23;;;;;;;12.70;8.85;;;23.60;99.90;;;;;;5011956;28;20208;-74
2022/08/16 05:47:49;;;;;;;12.02;8.90;;;23.60;99.90;;;;;;5013160;28;20575;-74
2022/08/16 05:50:16;;;;;;;13.73;9.80;;;23.60;99.90;;;;;;5011097;28;20671;-73
2022/08/16 05:52:43;;;;;;;12.25;9.52;;;23.50;99.90;;;;;;5011570;28;20674;-74
2022/08/16 05:55:10;;;;;;;13.30;9.45;;;23.60;99.90;;;;;;5010418;28;20235;-73
2022/08/16 05:57:36;;;;;;;12.32;8.95;;;23.50;99.90;;;;;;5010820;28;20247;-73
2022/08/16 06:00:08;;;;;;;13.40;9.02;;;23.50;99.90;;;;;;5011117;28;20222;-73
2022/08/16 06:02:35;;;;;;;10.63;8.90;;;23.50;99.90;;;;;;5013817;28;20198;-74
2022/08/16 06:05:03;;;;;;;13.50;8.45;;;23.50;99.90;;;;;;5013562;28;20202;-73
2022/08/16 06:07:30;;;;;;;10.88;9.23;;;23.60;99.90;;;;;;5013522;28;20219;-70
2022/08/16 06:09:58;;;;;;;9.52;8.05;;;23.60;99.90;;;;;;5012267;28;20203;-70
2022/08/16 06:12:25;;;;;;;9.32;8.38;;;23.70;99.90;;;;;;5006465;28;20680;-70
2022/08/16 06:14:52;;;;;;;11.25;8.50;;;23.70;99.90;;;;;;5008967;28;20227;-71
2022/08/16 06:17:22;;;;;;;9.82;8.82;;;23.70;99.90;;;;;;5010790;28;20214;-69
2022/08/16 06:19:48;;;;;;;9.55;8.15;;;23.70;99.90;;;;;;5012350;28;20207;-71
2022/08/16 06:22:15;;;;;;;12.48;9.10;;;23.80;99.90;;;;;;5012716;28;20239;-70
2022/08/16 06:24:43;;;;;;;11.57;8.18;;;23.80;99.90;;;;;;5010197;28;20214;-72
2022/08/16 06:27:10;;;;;;;12.32;8.85;;;23.90;99.90;;;;;;5013388;28;20199;-71
2022/08/16 06:29:37;;;;;;;10.07;8.27;;;24.00;99.90;;;;;;5009717;28;20219;-72
2022/08/16 06:32:05;;;;;;;12.25;9.23;;;24.10;99.90;;;;;;5009665;28;20210;-71
2022/08/16 06:34:34;;;;;;;17.25;8.60;;;24.10;99.90;;;;;;5012204;28;20203;-71
2022/08/16 06:37:01;;;;;;;9.55;8.48;;;24.20;99.90;;;;;;5011274;28;20287;-71
2022/08/16 06:39:28;;;;;;;9.10;8.15;;;24.10;99.90;;;;;;5006593;28;20218;-71
2022/08/16 06:41:54;;;;;;;13.25;8.35;;;24.20;99.90;;;;;;4999017;28;20230;-71
2022/08/16 06:44:21;;;;;;;10.20;8.52;;;24.20;99.90;;;;;;5011480;28;20219;-73
2022/08/16 06:46:49;;;;;;;12.85;8.30;;;24.20;99.90;;;;;;5007600;28;20228;-70
2022/08/16 06:49:16;;;;;;;11.13;8.45;;;24.30;99.90;;;;;;5010748;28;20652;-70
2022/08/16 06:51:44;;;;;;;10.50;8.68;;;24.30;99.90;;;;;;5011532;28;20229;-70
2022/08/16 06:54:11;;;;;;;9.85;8.85;;;24.40;99.90;;;;;;5011586;28;20209;-69
2022/08/16 06:56:38;;;;;;;10.00;8.63;;;24.50;99.90;;;;;;5014954;28;20235;-71
2022/08/16 06:59:05;;;;;;;13.55;9.15;;;24.60;99.90;;;;;;5006016;28;20204;-70
2022/08/16 07:01:32;;;;;;;15.75;9.05;;;24.70;99.90;;;;;;5009006;28;20584;-69
2022/08/16 07:03:58;;;;;;;10.20;8.07;;;24.70;99.90;;;;;;5008461;28;20199;-74
2022/08/16 07:06:26;;;;;;;9.20;8.30;;;24.90;99.90;;;;;;5009581;28;20657;-70
2022/08/16 07:08:55;;;;;;;9.00;8.10;;;25.00;99.90;;;;;;5010512;28;20237;-70
2022/08/16 07:11:21;;;;;;;9.27;8.15;;;25.20;99.90;;;;;;5010145;28;20629;-73
2022/08/16 07:13:49;;;;;;;10.43;9.35;;;25.40;99.90;;;;;;5013421;28;20214;-69
2022/08/16 07:16:17;;;;;;;9.88;8.63;;;25.70;99.90;;;;;;5006619;28;20224;-72
2022/08/16 07:18:43;;;;;;;10.82;8.38;;;25.90;99.90;;;;;;5007536;28;20207;-70
2022/08/16 07:21:11;;;;;;;17.50;8.90;;;26.10;99.90;;;;;;5011962;28;20219;-70
2022/08/16 07:23:38;;;;;;;10.43;8.48;;;26.40;99.90;;;;;;5007324;28;20200;-69
2022/08/16 07:26:09;;;;;;;10.15;7.90;;;26.60;99.90;;;;;;5005750;28;20208;-69
2022/08/16 07:28:36;;;;;;;8.80;7.95;;;26.90;99.90;;;;;;5006473;28;20207;-67
2022/08/16 07:31:04;;;;;;;14.27;8.55;;;27.10;99.90;;;;;;5007999;28;20259;-68
2022/08/16 07:33:31;;;;;;;10.23;7.55;;;27.30;99.90;;;;;;5009880;28;20628;-70
2022/08/16 07:35:58;;;;;;;10.65;8.27;;;27.60;99.90;;;;;;5009369;28;20274;-69
2022/08/16 07:38:26;;;;;;;12.88;8.75;;;27.70;99.90;;;;;;5010967;28;20214;-68
2022/08/16 07:40:53;;;;;;;14.23;8.85;;;27.70;99.90;;;;;;5008603;28;20242;-69
2022/08/16 07:43:22;;;;;;;9.63;8.63;;;27.60;99.90;;;;;;5010088;28;20199;-69
2022/08/16 07:45:49;;;;;;;11.85;8.05;;;27.60;99.90;;;;;;5007202;28;20678;-69
2022/08/16 07:48:15;;;;;;;10.68;9.15;;;27.70;99.90;;;;;;5009402;28;20640;-71
2022/08/16 07:50:43;;;;;;;9.57;7.78;;;27.60;99.90;;;;;;5009047;28;20207;-71
2022/08/16 07:53:11;;;;;;;10.50;8.80;;;27.50;99.90;;;;;;5006994;28;20218;-68
2022/08/16 07:55:38;;;;;;;10.77;8.85;;;27.60;99.90;;;;;;5003264;28;20663;-69
2022/08/16 07:58:05;;;;;;;10.95;8.57;;;27.60;99.90;;;;;;5008683;28;20235;-69
2022/08/16 08:00:34;;;;;;;10.75;8.00;;;27.80;99.90;;;;;;5007781;28;20584;-71
2022/08/16 08:03:02;;;;;;;11.65;8.75;;;27.90;99.90;;;;;;5005856;28;20441;-69
2022/08/16 08:05:28;;;;;;;12.93;8.88;;;28.00;99.90;;;;;;5008737;28;20215;-69
2022/08/16 08:07:56;;;;;;;8.38;7.57;;;28.10;99.90;;;;;;5007547;28;20208;-64
2022/08/16 08:10:24;;;;;;;10.65;7.40;;;28.20;99.90;;;;;;5008816;28;20243;-68
2022/08/16 08:12:52;;;;;;;11.68;7.40;;;28.30;99.90;;;;;;5006100;28;20619;-68
2022/08/16 08:15:21;;;;;;;9.00;7.57;;;28.40;99.90;;;;;;5008000;28;20219;-68
2022/08/16 08:17:49;;;;;;;10.90;7.90;;;28.60;99.90;;;;;;5007886;28;20219;-68
2022/08/16 08:20:21;;;;;;;9.15;7.35;;;28.70;99.90;;;;;;5004776;28;20619;-70
2022/08/16 08:22:50;;;;;;;8.23;6.72;;;28.80;99.90;;;;;;5007248;28;20298;-69
2022/08/16 08:25:17;;;;;;;10.75;7.75;;;28.80;99.90;;;;;;5002881;28;20554;-70
2022/08/16 08:27:43;;;;;;;14.98;7.78;;;28.70;99.90;;;;;;5009713;28;20372;-68
2022/08/16 08:30:11;;;;;;;8.20;7.30;;;28.70;99.90;;;;;;5011162;28;20203;-69
2022/08/16 08:32:38;;;;;;;14.90;7.68;;;28.70;99.90;;;;;;5012509;28;20226;-68
2022/08/16 08:35:07;;;;;;;11.20;6.97;;;28.80;99.90;;;;;;5013988;28;20675;-69
2022/08/16 08:37:36;;;;;;;10.98;7.28;;;28.80;99.90;;;;;;5013356;28;20643;-69
2022/08/16 08:40:04;;;;;;;9.20;7.07;;;28.80;99.90;;;;;;5012279;28;20206;-68
2022/08/16 08:42:31;;;;;;;9.55;7.25;;;28.70;99.90;;;;;;5015938;28;20210;-68
2022/08/16 08:44:57;;;;;;;10.88;7.53;;;28.70;99.90;;;;;;5014325;28;20199;-69
2022/08/16 08:47:24;;;;;;;11.45;7.90;;;28.70;99.90;;;;;;5013176;28;20681;-68
2022/08/16 08:49:51;;;;;;;8.60;7.60;;;28.80;99.90;;;;;;5010276;28;20683;-70
2022/08/16 08:52:19;;;;;;;9.15;7.63;;;28.90;99.90;;;;;;5011726;28;20207;-69
2022/08/16 08:54:46;;;;;;;9.00;7.38;;;29.00;99.90;;;;;;5013729;28;20207;-70
2022/08/16 08:57:13;;;;;;;11.13;8.05;;;29.10;99.90;;;;;;5008089;28;20239;-70
2022/08/16 08:59:40;;;;;;;8.63;7.78;;;29.30;99.90;;;;;;5012370;28;20289;-70
2022/08/16 09:02:07;;;;;;;10.75;8.10;;;29.40;99.90;;;;;;5011796;28;20878;-72
2022/08/16 09:04:34;;;;;;;9.52;8.13;;;29.40;99.90;;;;;;5013047;28;20579;-71
2022/08/16 09:07:02;;;;;;;12.20;7.55;;;29.60;99.90;;;;;;5011670;28;20218;-70
2022/08/16 09:09:31;;;;;;;10.02;7.20;;;29.90;99.90;;;;;;5011028;28;20226;-71
2022/08/16 09:11:57;;;;;;;9.68;8.00;;;30.20;99.90;;;;;;5009889;28;20210;-71
2022/08/16 09:14:24;;;;;;;8.85;7.65;;;30.50;99.90;;;;;;5010112;28;20240;-73
2022/08/16 09:16:51;;;;;;;9.50;7.53;;;30.60;99.90;;;;;;5011825;28;20215;-72
2022/08/16 09:19:18;;;;;;;9.75;7.65;;;30.80;99.90;;;;;;5009753;28;20214;-72
2022/08/16 09:21:48;;;;;;;9.43;7.03;;;31.00;99.90;;;;;;5011963;28;20297;-73
2022/08/16 09:24:15;;;;;;;10.20;7.35;;;31.20;99.90;;;;;;5002709;28;20207;-69
2022/08/16 09:26:43;;;;;;;13.10;7.30;;;31.40;99.90;;;;;;5000121;28;20700;-72
2022/08/16 09:29:10;;;;;;;10.43;7.57;;;31.30;99.90;;;;;;5009498;28;20222;-71
2022/08/16 09:31:37;;;;;;;8.88;7.03;;;31.20;99.90;;;;;;4996351;28;20203;-72
2022/08/16 09:34:04;;;;;;;7.80;7.00;;;31.00;99.90;;;;;;5010831;28;20239;-73
2022/08/16 09:36:31;;;;;;;10.70;6.72;;;30.90;99.90;;;;;;5005145;28;20231;-72
2022/08/16 09:38:59;;;;;;;10.88;6.55;;;30.70;99.90;;;;;;5006324;28;20577;-72
2022/08/16 09:41:26;;;;;;;8.85;7.70;;;30.50;99.90;;;;;;5002106;28;20203;-71
2022/08/16 09:43:55;;;;;;;7.50;6.75;;;30.30;99.90;;;;;;4999513;28;20210;-72
2022/08/16 09:46:22;;;;;;;12.98;6.57;;;30.20;99.90;;;;;;5000310;28;20215;-72
2022/08/16 09:48:51;;;;;;;7.95;7.05;;;30.10;99.90;;;;;;5005968;28;20210;-74
2022/08/16 09:51:18;;;;;;;9.52;6.35;;;30.00;99.90;;;;;;4999298;28;20597;-72
2022/08/16 09:53:46;;;;;;;7.88;7.03;;;29.90;99.90;;;;;;5004803;28;20203;-72
2022/08/16 09:56:20;;;;;;;7.37;6.53;;;29.80;99.90;;;;;;4966497;28;1153153;-72
2022/08/16 09:58:47;;;;;;;8.02;6.80;;;29.70;99.90;;;;;;5011766;28;20238;-73
2022/08/16 10:01:15;;;;;;;8.20;6.18;;;29.60;99.90;;;;;;5012081;28;20211;-72
2022/08/16 10:03:42;;;;;;;6.82;6.15;;;29.50;99.90;;;;;;5010666;28;20204;-73
2022/08/16 10:06:08;;;;;;;10.60;6.45;;;29.40;99.90;;;;;;5011880;28;20203;-72
2022/08/16 10:08:35;;;;;;;6.68;5.97;;;29.30;99.90;;;;;;5003787;28;20234;-71
2022/08/16 10:13:46;;;;;;;7.25;6.40;;;29.20;99.90;;;;;;5006978;28;20195;-71
2022/08/16 10:16:14;;;;;;;8.98;6.70;;;29.10;99.90;;;;;;5009331;28;20596;-72
2022/08/16 10:18:42;;;;;;;8.55;6.80;;;29.00;99.90;;;;;;5011120;28;20215;-72
2022/08/16 10:21:09;;;;;;;8.95;7.47;;;29.00;99.90;;;;;;5000438;28;20212;-71
2022/08/16 10:23:36;;;;;;;14.30;7.47;;;28.90;99.90;;;;;;5005273;28;20211;-73
2022/08/16 10:26:03;;;;;;;10.30;7.68;;;28.80;99.90;;;;;;5004911;28;20254;-72
2022/08/16 10:28:30;;;;;;;9.32;7.50;;;28.80;99.90;;;;;;4999780;28;20223;-72
2022/08/16 10:30:58;;;;;;;11.80;7.20;;;28.90;99.90;;;;;;5010603;28;20572;-72
2022/08/16 10:33:27;;;;;;;6.90;6.20;;;28.90;99.90;;;;;;5004228;28;20216;-71
2022/08/16 10:35:53;;;;;;;8.20;7.40;;;28.90;99.90;;;;;;4992543;28;20567;-71
2022/08/16 10:38:21;;;;;;;9.02;7.20;;;28.90;99.90;;;;;;4992529;28;20219;-72
2022/08/16 10:40:48;;;;;;;7.40;6.57;;;28.80;99.90;;;;;;5002104;28;20333;-72
2022/08/16 10:43:15;;;;;;;7.88;7.00;;;28.70;99.90;;;;;;5010284;28;20207;-72
2022/08/16 10:45:42;;;;;;;7.25;6.53;;;28.70;99.90;;;;;;4992969;28;20212;-72
2022/08/16 10:48:11;;;;;;;9.52;7.13;;;28.60;99.90;;;;;;4997129;28;20207;-72
2022/08/16 10:50:40;;;;;;;10.57;6.65;;;28.70;99.90;;;;;;5003324;28;20215;-71
2022/08/16 10:53:07;;;;;;;6.63;5.80;;;28.70;99.90;;;;;;4999581;28;20198;-72
2022/08/16 10:55:36;;;;;;;6.85;5.35;;;28.70;99.90;;;;;;5001933;28;20211;-72
2022/08/16 10:58:05;;;;;;;7.85;5.53;;;28.70;99.90;;;;;;5002778;28;20637;-73
2022/08/16 11:00:32;;;;;;;7.55;5.88;;;28.70;99.90;;;;;;4997697;28;20211;-71
2022/08/16 11:03:00;;;;;;;8.48;6.25;;;28.90;99.90;;;;;;4999487;28;20220;-73
2022/08/16 11:05:28;;;;;;;7.95;6.35;;;29.00;99.90;;;;;;5000583;28;20570;-72
2022/08/16 11:07:56;;;;;;;9.05;5.93;;;29.10;99.90;;;;;;5005068;28;20664;-72
2022/08/16 11:10:25;;;;;;;9.57;5.93;;;29.20;99.90;;;;;;5008267;28;20242;-72
2022/08/16 11:12:52;;;;;;;8.07;5.78;;;29.30;99.90;;;;;;5000482;28;20211;-71
2022/08/16 11:15:19;;;;;;;10.35;5.50;;;29.40;99.90;;;;;;5001828;28;20211;-71
2022/08/16 11:17:47;;;;;;;7.93;5.82;;;29.50;99.90;;;;;;4999250;28;20227;-72
2022/08/16 11:20:16;;;;;;;8.82;5.80;;;29.60;99.90;;;;;;4991741;28;20303;-72
2022/08/16 11:22:43;;;;;;;7.32;6.53;;;29.60;99.90;;;;;;5005688;28;20227;-72
2022/08/16 11:25:11;;;;;;;11.32;6.88;;;29.60;99.90;;;;;;4999903;28;20211;-73
2022/08/16 11:27:38;;;;;;;6.72;6.10;;;29.50;99.90;;;;;;5007341;28;20214;-73
2022/08/16 11:30:08;;;;;;;7.82;7.13;;;29.30;99.90;;;;;;4991939;28;20219;-72
2022/08/16 11:32:35;;;;;;;8.68;7.65;;;29.10;99.90;;;;;;5012215;28;20203;-73
2022/08/16 11:35:05;;;;;;;8.82;7.22;;;28.90;99.90;;;;;;5007986;28;20239;-71
2022/08/16 11:37:33;;;;;;;7.53;6.80;;;28.70;99.90;;;;;;4991216;28;20226;-71
2022/08/16 11:40:00;;;;;;;7.70;7.00;;;28.60;99.90;;;;;;4991808;28;20219;-73
2022/08/16 11:42:28;;;;;;;10.18;7.85;;;28.60;99.90;;;;;;4993765;28;20218;-71
2022/08/16 11:44:55;;;;;;;10.85;7.68;;;28.50;99.90;;;;;;4996463;28;20208;-72
2022/08/16 11:47:21;;;;;;;7.75;6.93;;;28.40;99.90;;;;;;5001120;28;20215;-71
2022/08/16 11:49:48;;;;;;;8.93;7.93;;;28.30;99.90;;;;;;5003292;28;20275;-73
2022/08/16 11:52:16;;;;;;;12.20;7.63;;;28.30;99.90;;;;;;5006484;28;20905;-72
2022/08/16 11:54:43;;;;;;;7.78;6.82;;;28.30;99.90;;;;;;4991326;28;20204;-71
2022/08/16 11:57:10;;;;;;;8.98;7.40;;;28.20;99.90;;;;;;4997342;28;20782;-71
2022/08/16 11:59:38;;;;;;;7.90;7.15;;;28.10;99.90;;;;;;5001260;28;20254;-72
2022/08/16 12:02:06;;;;;;;8.27;7.50;;;28.20;99.90;;;;;;4991524;28;20227;-72
2022/08/16 12:04:34;;;;;;;9.57;7.60;;;28.20;99.90;;;;;;4991526;28;20216;-72
2022/08/16 12:07:01;;;;;;;7.82;7.05;;;28.30;99.90;;;;;;5002688;28;20600;-71
2022/08/16 12:09:29;;;;;;;7.07;6.22;;;28.30;99.90;;;;;;5000364;28;20218;-72
2022/08/16 12:11:55;;;;;;;7.68;6.25;;;28.50;99.90;;;;;;4991132;28;20226;-71
2022/08/16 12:14:22;;;;;;;9.23;6.10;;;28.50;99.90;;;;;;5008142;28;20205;-72
2022/08/16 12:16:51;;;;;;;8.18;6.70;;;28.60;99.90;;;;;;5002946;28;20230;-73
2022/08/16 12:19:18;;;;;;;10.68;6.57;;;28.80;99.90;;;;;;4997393;28;20214;-73
2022/08/16 12:21:46;;;;;;;12.55;6.88;;;28.90;99.90;;;;;;4990939;28;20255;-72
2022/08/16 12:24:13;;;;;;;8.40;6.82;;;29.10;99.90;;;;;;4990817;28;20653;-72
2022/08/16 12:26:40;;;;;;;9.57;6.65;;;29.40;99.90;;;;;;4995681;28;20231;-72
2022/08/16 12:29:07;;;;;;;8.27;7.53;;;29.60;99.90;;;;;;4990862;28;20601;-73
2022/08/16 12:31:34;;;;;;;16.15;6.93;;;29.70;99.90;;;;;;5006545;28;20672;-71
2022/08/16 12:34:06;;;;;;;11.50;7.00;;;29.70;99.90;;;;;;5003803;28;20211;-71
2022/08/16 12:36:33;;;;;;;9.10;6.95;;;29.60;99.90;;;;;;4996056;28;20218;-72
2022/08/16 12:39:00;;;;;;;7.57;6.93;;;29.60;99.90;;;;;;4998151;28;20227;-73
2022/08/16 12:41:27;;;;;;;8.57;7.68;;;29.60;99.90;;;;;;4993587;28;20212;-72
2022/08/16 12:43:55;;;;;;;10.90;7.13;;;29.60;99.90;;;;;;4999543;28;22009;-72